Alt de Torrecillas, Puerto Rico
Current Conditions -  °F | °C
As of 7:56 AM on Sunday 25 Jan 2015 (Local Time) from TJSJ Reporting Station
Few Clouds Few Clouds  
Wind Chill: 23°   Ceiling: Unl
Heat Index: 23°   Visibility: 10mi
Dew Point: 21°   Wind: 0mph
Humidity: 90%   Direction: NA
Pressure: 30.03"   Gusts: NA
Location:  18.1808°N, 66.2956°W
Report Text: TJSJ 251156Z 00000KT 10SM FEW023 23/21 A3003 RMK AO2 SLP168 T02280211 10239 20222 53013
Loading
Personal Weather Stations






























Interactive Weather Map New forecast layout! Learn more

10-Day Weather Forecast

Advertisements
Track Severe Weather on mobile